ESCF/LPI METAR and TAF weather

Enter ICAO airport designator
Station Type Date Time Source
ESCF METAR 2021/01/17 18:20 UTC NOAA

ESCF 171820Z AUTO 21007KT 9999 FEW023/// OVC035/// M03/M04 Q1019


Station Type Date Time Source
ESCF Decoded METAR 2021/01/17 18:20 UTC NOAA

Linkoping / Malmen, Sweden (ESCF) 58-24N 015-31E 117M
Jan 17, 2021 - 01:20 PM EST / 2021.01.17 1820 UTC
Wind: from the SSW (210 degrees) at 8 MPH (7 KT):0
Visibility: greater than 7 mile(s):0
Sky conditions: overcast
Temperature: 26 F (-3 C)
Windchill: 17 F (-8 C):1
Dew Point: 24 F (-4 C)
Relative Humidity: 92%
Pressure (altimeter): 30.09 in. Hg (1019 hPa)
ob: ESCF 171820Z AUTO 21007KT 9999 FEW023/// OVC035/// M03/M04 Q1019
cycle: 18

Station Type Date Time Source
ESCF TAF UTC NOAA

Error!

Example: see airport list